createdAt,value
2022-10-07T00:00:55.818Z,101768.84
2022-10-07T00:03:26.966Z,101761.34
2022-10-07T00:06:25.648Z,101760.06
2022-10-07T00:08:53.866Z,101761.88
2022-10-07T00:11:23.974Z,101757.03
2022-10-07T00:13:54.203Z,101757.78
2022-10-07T00:16:24.708Z,101764.66
2022-10-07T00:18:54.674Z,101757.03
2022-10-07T00:21:21.473Z,101758.91
2022-10-07T00:23:48.718Z,101759.66
2022-10-07T00:26:18.693Z,101752.63
2022-10-07T00:28:46.545Z,101750.88
2022-10-07T00:31:22.457Z,101749.00
2022-10-07T00:33:49.977Z,101747.66
2022-10-07T00:36:20.699Z,101748.66
2022-10-07T00:39:05.220Z,101743.63
2022-10-07T00:41:38.886Z,101740.56
2022-10-07T00:44:34.176Z,101728.16
2022-10-07T00:47:21.470Z,101726.16
2022-10-07T00:49:57.970Z,101718.53
2022-10-07T00:52:28.086Z,101715.44
2022-10-07T00:54:57.534Z,101721.66
2022-10-07T00:57:27.643Z,101720.38
2022-10-07T00:59:57.037Z,101711.28
2022-10-07T01:02:25.742Z,101705.44
2022-10-07T01:04:54.663Z,101705.91
2022-10-07T01:07:21.770Z,101699.69
2022-10-07T01:09:51.291Z,101712.25
2022-10-07T01:12:36.037Z,101699.34
2022-10-07T01:15:32.769Z,101710.38
2022-10-07T01:18:11.991Z,101708.78
2022-10-07T01:20:59.569Z,101698.97
2022-10-07T01:23:44.555Z,101702.50
2022-10-07T01:26:45.133Z,101701.16
2022-10-07T01:29:18.805Z,101702.59
2022-10-07T01:31:53.465Z,101691.34
2022-10-07T01:34:23.784Z,101691.91
2022-10-07T01:36:54.113Z,101685.97
2022-10-07T01:39:27.626Z,101683.28
2022-10-07T01:41:54.586Z,101677.25
2022-10-07T01:44:21.661Z,101680.13
2022-10-07T01:46:49.796Z,101672.28
2022-10-07T01:49:16.402Z,101666.97
2022-10-07T01:51:55.419Z,101664.84
2022-10-07T01:54:41.191Z,101659.22
2022-10-07T01:57:27.166Z,101653.75
2022-10-07T02:00:07.921Z,101661.78
2022-10-07T02:03:02.267Z,101655.63
2022-10-07T02:05:52.149Z,101653.84
2022-10-07T02:08:51.469Z,101655.03
2022-10-07T02:11:23.414Z,101658.63
2022-10-07T02:14:03.570Z,101651.59
2022-10-07T02:16:42.020Z,101643.28
2022-10-07T02:19:15.434Z,101642.13
2022-10-07T02:21:45.735Z,101645.09
2022-10-07T02:24:14.718Z,101639.41
2022-10-07T02:26:43.845Z,101637.47
2022-10-07T02:29:14.525Z,101630.75
2022-10-07T02:31:44.678Z,101622.50
2022-10-07T02:34:19.583Z,101619.38
2022-10-07T02:37:01.285Z,101616.44
2022-10-07T02:39:29.292Z,101612.06
2022-10-07T02:42:13.935Z,101614.69
2022-10-07T02:44:52.734Z,101618.16
2022-10-07T02:47:36.312Z,101620.78
2022-10-07T02:50:07.658Z,101613.03
2022-10-07T02:52:35.287Z,101614.56
2022-10-07T02:55:07.736Z,101613.50
2022-10-07T02:57:39.541Z,101621.25
2022-10-07T03:00:11.106Z,101612.84
2022-10-07T03:02:57.675Z,101601.63
2022-10-07T03:05:34.973Z,101606.03
2022-10-07T03:08:07.429Z,101606.16
2022-10-07T03:10:34.753Z,101617.38
2022-10-07T03:13:04.791Z,101612.50
2022-10-07T03:15:39.772Z,101605.81
2022-10-07T03:18:26.185Z,101600.22
2022-10-07T03:20:57.492Z,101598.56
2022-10-07T03:23:24.671Z,101596.81
2022-10-07T03:25:53.511Z,101600.50
2022-10-07T03:28:22.813Z,101595.16
2022-10-07T03:30:50.460Z,101587.69
2022-10-07T03:33:20.100Z,101583.63
2022-10-07T03:35:47.283Z,101580.03
2022-10-07T03:38:13.882Z,101587.75
2022-10-07T03:40:44.126Z,101586.44
2022-10-07T03:43:11.759Z,101581.38
2022-10-07T03:45:51.247Z,101579.94
2022-10-07T03:48:18.580Z,101579.13
2022-10-07T03:50:52.780Z,101573.34
2022-10-07T03:53:22.017Z,101581.50
2022-10-07T03:55:48.717Z,101568.47
2022-10-07T03:58:15.364Z,101580.72
2022-10-07T04:00:43.032Z,101572.06
2022-10-07T04:03:10.111Z,101572.25
2022-10-07T04:05:37.097Z,101569.38
2022-10-07T04:08:04.853Z,101572.53
2022-10-07T04:10:34.010Z,101566.19
2022-10-07T04:13:01.024Z,101571.25
2022-10-07T04:15:27.880Z,101575.38
2022-10-07T04:17:58.530Z,101561.09
2022-10-07T04:20:26.352Z,101569.47
2022-10-07T04:22:53.787Z,101566.13
2022-10-07T04:25:37.527Z,101563.41
2022-10-07T04:28:19.896Z,101564.03
2022-10-07T04:30:51.539Z,101563.22
2022-10-07T04:33:22.919Z,101556.59
2022-10-07T04:35:50.942Z,101554.53
2022-10-07T04:38:18.844Z,101542.56
2022-10-07T04:40:49.957Z,101546.31
2022-10-07T04:43:23.124Z,101547.94
2022-10-07T04:46:02.811Z,101526.78
2022-10-07T04:48:29.860Z,101540.09
2022-10-07T04:51:02.087Z,101539.19
2022-10-07T04:53:29.211Z,101526.94
2022-10-07T04:55:56.402Z,101528.88
2022-10-07T04:58:24.393Z,101530.81
2022-10-07T05:00:53.074Z,101523.66
2022-10-07T05:03:25.750Z,101530.38
2022-10-07T05:05:55.010Z,101530.97
2022-10-07T05:08:24.900Z,101519.75
2022-10-07T05:10:57.019Z,101513.13
2022-10-07T05:13:26.200Z,101515.66
2022-10-07T05:15:59.357Z,101520.66
2022-10-07T05:18:28.416Z,101521.22
2022-10-07T05:20:58.290Z,101512.00
2022-10-07T05:23:31.435Z,101512.47
2022-10-07T05:26:02.983Z,101521.94
2022-10-07T05:28:30.662Z,101511.06
2022-10-07T05:31:13.219Z,101511.66
2022-10-07T05:33:42.777Z,101504.38
2022-10-07T05:36:10.835Z,101516.72
2022-10-07T05:38:37.698Z,101518.81
2022-10-07T05:41:07.086Z,101514.03
2022-10-07T05:43:39.815Z,101516.22
2022-10-07T05:46:14.186Z,101510.38
2022-10-07T05:48:46.998Z,101511.94
2022-10-07T05:51:14.276Z,101508.81
2022-10-07T05:53:42.847Z,101506.72
2022-10-07T05:56:13.949Z,101500.06
2022-10-07T05:58:41.147Z,101494.66
2022-10-07T06:01:14.624Z,101497.38
2022-10-07T06:03:43.912Z,101501.41
2022-10-07T06:06:11.657Z,101500.13
2022-10-07T06:08:38.426Z,101503.81
2022-10-07T06:11:25.729Z,101506.50
2022-10-07T06:13:54.669Z,101495.72
2022-10-07T06:16:22.496Z,101504.03
2022-10-07T06:18:52.233Z,101502.00
2022-10-07T06:21:25.805Z,101506.06
2022-10-07T06:23:53.128Z,101506.91
2022-10-07T06:26:23.697Z,101504.63
2022-10-07T06:28:51.311Z,101503.00
2022-10-07T06:31:22.424Z,101502.59
2022-10-07T06:33:50.406Z,101506.38
2022-10-07T06:36:17.995Z,101504.38
2022-10-07T06:38:48.611Z,101507.59
2022-10-07T06:41:18.348Z,101514.78
2022-10-07T06:43:46.833Z,101503.16
2022-10-07T06:46:19.963Z,101505.03
2022-10-07T06:48:50.476Z,101500.41
2022-10-07T06:51:21.600Z,101498.03
2022-10-07T06:53:57.834Z,101497.31
2022-10-07T06:56:25.854Z,101506.38
2022-10-07T06:58:52.761Z,101507.09
2022-10-07T07:01:28.629Z,101501.31
2022-10-07T07:03:56.030Z,101509.47
2022-10-07T07:06:23.654Z,101513.66
2022-10-07T07:08:51.098Z,101510.63
2022-10-07T07:11:37.658Z,101502.41
2022-10-07T07:14:12.287Z,101513.66
2022-10-07T07:16:42.111Z,101506.78
2022-10-07T07:19:12.340Z,101510.81
2022-10-07T07:21:41.144Z,101508.09
2022-10-07T07:24:11.404Z,101505.78
2022-10-07T07:26:40.337Z,101504.09
2022-10-07T07:29:10.964Z,101507.44
2022-10-07T07:31:42.926Z,101506.84
2022-10-07T07:34:12.969Z,101504.06
2022-10-07T07:36:46.594Z,101508.03
2022-10-07T07:39:17.557Z,101507.81
2022-10-07T07:41:50.819Z,101509.84
2022-10-07T07:44:20.189Z,101508.44
2022-10-07T07:46:51.143Z,101502.03
2022-10-07T07:49:21.100Z,101501.97
2022-10-07T07:51:48.132Z,101494.06
2022-10-07T07:54:22.258Z,101491.00
2022-10-07T07:56:49.709Z,101499.44
2022-10-07T07:59:19.398Z,101489.09
2022-10-07T08:01:48.073Z,101493.06
2022-10-07T08:04:16.045Z,101494.06
2022-10-07T08:06:43.146Z,101498.13
2022-10-07T08:09:09.872Z,101497.19
2022-10-07T08:11:37.807Z,101497.94
2022-10-07T08:14:04.662Z,101495.75
2022-10-07T08:16:34.837Z,101486.41
2022-10-07T08:19:01.673Z,101483.94
2022-10-07T08:21:32.738Z,101483.59
2022-10-07T08:24:02.706Z,101480.69
2022-10-07T08:26:34.710Z,101480.06
2022-10-07T08:29:04.734Z,101483.81
2022-10-07T08:31:33.314Z,101486.28
2022-10-07T08:34:01.895Z,101478.84
2022-10-07T08:36:32.525Z,101475.13
2022-10-07T08:39:00.650Z,101470.97
2022-10-07T08:42:08.320Z,101469.81
2022-10-07T08:44:40.965Z,101471.03
2022-10-07T08:47:25.770Z,101468.88
2022-10-07T08:50:03.863Z,101464.50
2022-10-07T08:52:39.579Z,101464.22
2022-10-07T08:55:28.227Z,101459.78
2022-10-07T08:58:32.366Z,101463.00
2022-10-07T09:01:26.289Z,101451.38
2022-10-07T09:04:05.065Z,101458.13
2022-10-07T09:06:40.187Z,101448.59
2022-10-07T09:09:14.723Z,101453.88
2022-10-07T09:11:45.235Z,101447.53
2022-10-07T09:14:26.229Z,101451.84
2022-10-07T09:16:56.530Z,101449.38
2022-10-07T09:19:32.052Z,101441.44
2022-10-07T09:22:19.504Z,101441.06
2022-10-07T09:24:49.091Z,101440.94
2022-10-07T09:27:18.175Z,101437.28
2022-10-07T09:29:44.901Z,101437.16
2022-10-07T09:32:14.208Z,101442.50
2022-10-07T09:34:41.386Z,101431.75
2022-10-07T09:37:24.557Z,101425.72
2022-10-07T09:39:53.566Z,101417.81
2022-10-07T09:42:43.128Z,101427.72
2022-10-07T09:45:25.162Z,101424.38
2022-10-07T09:47:55.346Z,101420.28
2022-10-07T09:50:31.149Z,101413.88
2022-10-07T09:52:58.070Z,101411.91
2022-10-07T09:55:37.321Z,101414.31
2022-10-07T09:58:26.843Z,101404.03
2022-10-07T10:00:56.118Z,101401.84
2022-10-07T10:03:33.968Z,101405.53
2022-10-07T10:06:03.563Z,101398.03
2022-10-07T10:08:33.942Z,101399.34
2022-10-07T10:11:03.234Z,101400.84
2022-10-07T10:13:33.857Z,101398.84
2022-10-07T10:16:02.725Z,101387.78
2022-10-07T10:18:52.945Z,101385.03
2022-10-07T10:21:29.816Z,101393.16
2022-10-07T10:23:59.279Z,101388.00
2022-10-07T10:26:33.855Z,101386.84
2022-10-07T10:29:25.633Z,101380.25
2022-10-07T10:32:01.276Z,101381.63
2022-10-07T10:34:52.583Z,101374.97
2022-10-07T10:37:24.450Z,101363.03
2022-10-07T10:40:19.145Z,101357.69
2022-10-07T10:43:03.822Z,101355.16
2022-10-07T10:45:58.537Z,101354.41
2022-10-07T10:48:48.955Z,101338.41
2022-10-07T10:51:46.370Z,101334.28
2022-10-07T10:54:27.889Z,101328.19
2022-10-07T10:57:01.766Z,101339.44
2022-10-07T10:59:47.141Z,101331.47
2022-10-07T11:02:35.774Z,101318.19
2022-10-07T11:05:22.018Z,101317.69
2022-10-07T11:08:17.306Z,101314.56
2022-10-07T11:10:51.616Z,101311.16
2022-10-07T11:13:21.167Z,101308.63
2022-10-07T11:15:53.858Z,101306.13
2022-10-07T11:18:32.709Z,101299.16
2022-10-07T11:21:01.361Z,101294.78
2022-10-07T11:23:41.273Z,101297.34
2022-10-07T11:26:19.856Z,101288.41
2022-10-07T11:28:47.577Z,101297.75
2022-10-07T11:31:50.288Z,101286.03
2022-10-07T11:34:19.354Z,101275.56
2022-10-07T11:37:07.085Z,101263.09
2022-10-07T11:39:38.042Z,101262.00
2022-10-07T11:42:11.140Z,101262.66
2022-10-07T11:44:55.648Z,101258.63
2022-10-07T11:47:26.261Z,101253.91
2022-10-07T11:50:18.290Z,101258.69
2022-10-07T11:52:51.220Z,101259.78
2022-10-07T11:55:32.629Z,101254.34
2022-10-07T11:58:04.213Z,101243.75
2022-10-07T12:00:34.692Z,101237.44
2022-10-07T12:03:33.322Z,101243.00
2022-10-07T12:06:13.022Z,101230.72
2022-10-07T12:08:42.052Z,101225.63
2022-10-07T12:11:12.340Z,101214.75
2022-10-07T12:13:45.215Z,101212.03
2022-10-07T12:16:24.082Z,101199.53
2022-10-07T12:19:06.263Z,101201.13
2022-10-07T12:22:02.876Z,101202.34
2022-10-07T12:24:36.880Z,101183.28
2022-10-07T12:27:28.907Z,101179.47
2022-10-07T12:30:02.194Z,101178.16
2022-10-07T12:32:48.033Z,101172.91
2022-10-07T12:35:30.085Z,101170.69
2022-10-07T12:38:24.557Z,101162.31
2022-10-07T12:41:11.852Z,101159.59
2022-10-07T12:43:50.718Z,101154.91
2022-10-07T12:46:20.764Z,101150.03
2022-10-07T12:48:59.604Z,101143.00
2022-10-07T12:51:30.670Z,101131.88
2022-10-07T12:53:59.363Z,101139.25
2022-10-07T12:56:30.420Z,101128.16
2022-10-07T12:59:30.962Z,101121.88
2022-10-07T13:02:25.773Z,101120.53
2022-10-07T13:05:17.284Z,101118.56
2022-10-07T13:08:00.490Z,101115.91
2022-10-07T13:11:00.516Z,101113.94
2022-10-07T13:13:55.815Z,101120.22
2022-10-07T13:16:31.923Z,101116.97
2022-10-07T13:19:19.583Z,101105.31
2022-10-07T13:22:13.361Z,101094.47
2022-10-07T13:24:54.571Z,101094.97
2022-10-07T13:27:27.866Z,101100.16
2022-10-07T13:29:57.434Z,101091.75
2022-10-07T13:32:35.229Z,101085.50
2022-10-07T13:35:34.044Z,101081.38
2022-10-07T13:38:03.562Z,101083.59
2022-10-07T13:40:35.501Z,101073.22
2022-10-07T13:43:07.031Z,101068.06
2022-10-07T13:45:45.144Z,101059.63
2022-10-07T13:48:25.086Z,101059.38
2022-10-07T13:50:55.497Z,101053.94
2022-10-07T13:53:34.774Z,101043.53
2022-10-07T13:56:08.745Z,101038.91
2022-10-07T13:58:37.003Z,101038.06
2022-10-07T14:01:05.635Z,101050.06
2022-10-07T14:03:32.618Z,101047.28
2022-10-07T14:05:59.698Z,101044.25
2022-10-07T14:08:28.286Z,101029.22
2022-10-07T14:10:58.213Z,101023.16
2022-10-07T14:13:27.510Z,101025.88
2022-10-07T14:15:56.259Z,101016.56
2022-10-07T14:18:23.681Z,101004.81
2022-10-07T14:20:53.985Z,101009.88
2022-10-07T14:23:25.042Z,100998.91
2022-10-07T14:25:56.955Z,100996.16
2022-10-07T14:28:23.841Z,100994.41
2022-10-07T14:31:28.600Z,100990.00
2022-10-07T14:34:38.917Z,100989.31
2022-10-07T14:37:28.440Z,100982.81
2022-10-07T14:39:58.710Z,100984.34
2022-10-07T14:42:32.901Z,100977.50
2022-10-07T14:45:03.212Z,100971.75
2022-10-07T14:47:37.635Z,100967.41
2022-10-07T14:50:04.731Z,100962.25
2022-10-07T14:52:51.771Z,100966.22
2022-10-07T14:55:23.565Z,100964.41
2022-10-07T14:57:50.538Z,100965.66
2022-10-07T15:00:23.041Z,100976.38
2022-10-07T15:02:50.764Z,100970.38
2022-10-07T15:05:21.710Z,100964.00
2022-10-07T15:07:49.896Z,100958.81
2022-10-07T15:10:19.805Z,100946.38
2022-10-07T15:12:47.414Z,100936.72
2022-10-07T15:15:15.076Z,100933.72
2022-10-07T15:17:42.471Z,100927.53
2022-10-07T15:20:11.878Z,100931.84
2022-10-07T15:22:38.517Z,100925.66
2022-10-07T15:25:07.638Z,100933.31
2022-10-07T15:27:34.544Z,100936.78
2022-10-07T15:30:01.210Z,100943.50
2022-10-07T15:32:30.156Z,100936.09
2022-10-07T15:34:58.042Z,100935.03
2022-10-07T15:37:27.402Z,100927.84
2022-10-07T15:39:54.825Z,100933.94
2022-10-07T15:42:24.439Z,100928.56
2022-10-07T15:44:51.367Z,100914.22
2022-10-07T15:47:18.603Z,100903.66
2022-10-07T15:49:45.350Z,100916.09
2022-10-07T15:52:12.181Z,100916.59
2022-10-07T15:54:39.321Z,100906.66
2022-10-07T15:57:06.340Z,100910.81
2022-10-07T15:59:33.042Z,100907.47
2022-10-07T16:01:59.869Z,100910.38
2022-10-07T16:04:26.776Z,100917.47
2022-10-07T16:06:53.592Z,100906.94
2022-10-07T16:09:22.138Z,100912.91
2022-10-07T16:11:49.789Z,100918.63
2022-10-07T16:14:16.672Z,100902.66
2022-10-07T16:16:43.505Z,100911.69
2022-10-07T16:19:11.721Z,100908.56
2022-10-07T16:21:40.709Z,100905.03
2022-10-07T16:24:13.133Z,100892.66
2022-10-07T16:26:40.177Z,100890.03
2022-10-07T16:29:30.319Z,100898.19
2022-10-07T16:31:59.113Z,100898.47
2022-10-07T16:34:28.211Z,100901.47
2022-10-07T16:36:55.842Z,100905.03
2022-10-07T16:39:22.820Z,100896.34
2022-10-07T16:41:51.726Z,100909.13
2022-10-07T16:44:19.687Z,100903.88
2022-10-07T16:46:46.965Z,100902.53
2022-10-07T16:49:17.164Z,100900.69
2022-10-07T16:51:44.828Z,100899.06
2022-10-07T16:54:16.712Z,100894.16
2022-10-07T16:56:49.884Z,100895.25
2022-10-07T16:59:23.732Z,100894.97
2022-10-07T17:01:53.059Z,100893.88
2022-10-07T17:04:20.283Z,100899.06
2022-10-07T17:06:47.336Z,100889.81
2022-10-07T17:09:14.056Z,100893.91
2022-10-07T17:11:41.627Z,100889.81
2022-10-07T17:14:11.749Z,100890.59
2022-10-07T17:16:42.138Z,100888.72
2022-10-07T17:19:12.070Z,100893.91
2022-10-07T17:21:41.748Z,100892.81
2022-10-07T17:24:09.803Z,100889.81
2022-10-07T17:26:37.807Z,100891.72
2022-10-07T17:29:07.735Z,100896.63
2022-10-07T17:31:38.946Z,100896.63
2022-10-07T17:34:07.009Z,100896.34
2022-10-07T17:36:35.007Z,100895.28
2022-10-07T17:39:01.971Z,100890.94
2022-10-07T17:41:31.376Z,100884.16
2022-10-07T17:44:00.997Z,100886.59
2022-10-07T17:46:30.308Z,100883.63
2022-10-07T17:48:59.177Z,100884.41
2022-10-07T17:51:28.988Z,100880.63
2022-10-07T17:53:57.768Z,100883.88
2022-10-07T17:56:24.676Z,100885.25
2022-10-07T17:58:51.426Z,100889.56
2022-10-07T18:01:22.647Z,100888.75
2022-10-07T18:04:15.268Z,100885.53
2022-10-07T18:06:43.279Z,100885.78
2022-10-07T18:09:13.735Z,100879.56
2022-10-07T18:11:58.952Z,100880.63
2022-10-07T18:14:44.333Z,100877.38
2022-10-07T18:17:11.106Z,100878.47
2022-10-07T18:19:39.574Z,100870.59
2022-10-07T18:22:06.436Z,100882.25
2022-10-07T18:24:33.208Z,100884.16
2022-10-07T18:27:01.168Z,100868.69
2022-10-07T18:29:29.434Z,100864.88
2022-10-07T18:31:56.407Z,100865.44
2022-10-07T18:34:23.508Z,100863.81
2022-10-07T18:36:55.213Z,100862.19
2022-10-07T18:39:23.258Z,100868.44
2022-10-07T18:41:49.988Z,100869.50
2022-10-07T18:44:16.727Z,100874.66
2022-10-07T18:46:43.372Z,100869.78
2022-10-07T18:49:13.499Z,100865.41
2022-10-07T18:51:40.873Z,100873.03
2022-10-07T18:54:07.605Z,100862.72
2022-10-07T18:56:39.795Z,100857.56
2022-10-07T18:59:09.475Z,100857.84
2022-10-07T19:01:37.214Z,100864.88
2022-10-07T19:04:04.901Z,100865.69
2022-10-07T19:06:33.467Z,100864.06
2022-10-07T19:09:02.627Z,100863.25
2022-10-07T19:11:30.450Z,100868.41
2022-10-07T19:13:59.055Z,100856.75
2022-10-07T19:16:38.101Z,100862.72
2022-10-07T19:19:14.830Z,100863.78
2022-10-07T19:21:41.844Z,100859.75
2022-10-07T19:24:08.800Z,100863.25
2022-10-07T19:26:38.272Z,100863.53
2022-10-07T19:29:06.613Z,100858.09
2022-10-07T19:31:36.054Z,100856.75
2022-10-07T19:34:05.495Z,100863.81
2022-10-07T19:36:35.022Z,100867.59
2022-10-07T19:39:03.281Z,100859.44
2022-10-07T19:41:33.085Z,100852.94
2022-10-07T19:44:00.649Z,100857.81
2022-10-07T19:46:30.166Z,100863.78
2022-10-07T19:48:58.813Z,100864.34
2022-10-07T19:51:27.807Z,100857.28
2022-10-07T19:53:57.259Z,100852.13
2022-10-07T19:56:30.364Z,100854.03
2022-10-07T19:59:05.318Z,100851.03
2022-10-07T20:01:35.761Z,100847.22
2022-10-07T20:04:15.044Z,100848.31
2022-10-07T20:06:42.607Z,100848.59
2022-10-07T20:09:12.326Z,100844.53
2022-10-07T20:11:39.011Z,100845.31
2022-10-07T20:14:06.609Z,100844.53
2022-10-07T20:16:34.593Z,100838.28
2022-10-07T20:19:05.754Z,100837.47
2022-10-07T20:21:35.932Z,100825.78
2022-10-07T20:24:03.462Z,100839.91
2022-10-07T20:26:32.452Z,100835.03
2022-10-07T20:29:00.960Z,100831.78
2022-10-07T20:31:34.920Z,100831.75
2022-10-07T20:34:03.040Z,100840.75
2022-10-07T20:36:35.123Z,100826.63
2022-10-07T20:39:26.321Z,100832.88
2022-10-07T20:42:12.185Z,100837.22
2022-10-07T20:44:39.283Z,100827.72
2022-10-07T20:47:07.952Z,100840.44
2022-10-07T20:49:37.170Z,100834.75
2022-10-07T20:52:06.970Z,100839.66
2022-10-07T20:54:33.703Z,100835.03
2022-10-07T20:57:00.441Z,100841.56
2022-10-07T20:59:29.162Z,100839.84
2022-10-07T21:01:57.265Z,100836.09
2022-10-07T21:04:28.560Z,100833.38
2022-10-07T21:06:56.777Z,100838.25
2022-10-07T21:09:24.901Z,100830.66
2022-10-07T21:11:52.917Z,100829.09
2022-10-07T21:14:19.990Z,100832.59
2022-10-07T21:16:47.528Z,100824.41
2022-10-07T21:19:15.291Z,100828.00
2022-10-07T21:21:41.978Z,100822.53
2022-10-07T21:24:08.868Z,100821.47
2022-10-07T21:26:36.448Z,100823.09
2022-10-07T21:29:04.979Z,100822.53
2022-10-07T21:31:31.641Z,100824.13
2022-10-07T21:34:01.537Z,100814.91
2022-10-07T21:36:28.589Z,100815.75
2022-10-07T21:38:58.284Z,100815.44
2022-10-07T21:41:38.627Z,100817.34
2022-10-07T21:44:11.422Z,100811.63
2022-10-07T21:46:40.011Z,100809.47
2022-10-07T21:49:07.674Z,100813.78
2022-10-07T21:51:35.037Z,100807.56
2022-10-07T21:54:02.887Z,100806.72
2022-10-07T21:56:31.622Z,100811.38
2022-10-07T21:59:01.185Z,100801.59
2022-10-07T22:01:28.685Z,100812.22
2022-10-07T22:03:59.721Z,100812.22
2022-10-07T22:06:46.663Z,100809.81
2022-10-07T22:09:18.470Z,100812.22
2022-10-07T22:11:45.281Z,100813.03
2022-10-07T22:14:13.065Z,100806.25
2022-10-07T22:16:40.252Z,100809.50
2022-10-07T22:19:07.638Z,100803.19
2022-10-07T22:21:35.737Z,100810.25
2022-10-07T22:24:05.100Z,100800.00
2022-10-07T22:26:36.357Z,100800.00
2022-10-07T22:29:03.121Z,100804.88
2022-10-07T22:31:30.277Z,100812.50
2022-10-07T22:33:59.760Z,100807.88
2022-10-07T22:36:28.155Z,100804.63
2022-10-07T22:39:02.165Z,100797.28
2022-10-07T22:41:29.453Z,100786.41
2022-10-07T22:43:56.307Z,100789.97
2022-10-07T22:46:28.003Z,100795.38
2022-10-07T22:48:58.387Z,100788.59
2022-10-07T22:51:28.431Z,100783.44
2022-10-07T22:53:56.291Z,100785.84
2022-10-07T22:56:24.748Z,100782.38
2022-10-07T22:58:57.928Z,100787.56
2022-10-07T23:01:25.517Z,100783.75
2022-10-07T23:03:52.767Z,100782.06
2022-10-07T23:06:19.816Z,100781.53
2022-10-07T23:08:47.843Z,100787.00
2022-10-07T23:11:22.126Z,100778.84
2022-10-07T23:13:50.960Z,100775.84
2022-10-07T23:16:19.725Z,100776.94
2022-10-07T23:18:48.244Z,100771.22
2022-10-07T23:21:20.620Z,100772.03
2022-10-07T23:23:49.979Z,100770.44
2022-10-07T23:26:19.905Z,100767.72
2022-10-07T23:28:49.376Z,100770.41
2022-10-07T23:31:18.301Z,100774.22
2022-10-07T23:33:51.665Z,100771.75
2022-10-07T23:36:22.975Z,100774.50
2022-10-07T23:38:51.109Z,100764.44
2022-10-07T23:41:20.848Z,100753.28
2022-10-07T23:43:49.654Z,100752.78
2022-10-07T23:46:17.655Z,100752.25
2022-10-07T23:48:44.393Z,100746.00
2022-10-07T23:51:13.317Z,100747.91
2022-10-07T23:53:40.038Z,100749.25
2022-10-07T23:56:07.124Z,100748.69
2022-10-07T23:58:34.878Z,100751.66
